sensor_id;sensor_type;location;lat;lon;timestamp;P1;durP1;ratioP1;P2;durP2;ratioP2
52942;SDS011;38809;53.300;6.614;2024-01-15T00:00:21;2.28;;;0.40;;
52942;SDS011;38809;53.300;6.614;2024-01-15T00:02:47;2.28;;;0.40;;
52942;SDS011;38809;53.300;6.614;2024-01-15T00:05:13;4.30;;;0.80;;
52942;SDS011;38809;53.300;6.614;2024-01-15T00:07:39;3.35;;;0.70;;
52942;SDS011;38809;53.300;6.614;2024-01-15T00:10:05;3.85;;;0.80;;
52942;SDS011;38809;53.300;6.614;2024-01-15T00:12:31;2.40;;;0.60;;
52942;SDS011;38809;53.300;6.614;2024-01-15T00:14:58;3.00;;;0.52;;
52942;SDS011;38809;53.300;6.614;2024-01-15T00:17:24;3.35;;;0.77;;
52942;SDS011;38809;53.300;6.614;2024-01-15T00:19:50;6.35;;;0.85;;
52942;SDS011;38809;53.300;6.614;2024-01-15T00:22:16;5.47;;;1.00;;
52942;SDS011;38809;53.300;6.614;2024-01-15T00:24:42;7.57;;;1.40;;
52942;SDS011;38809;53.300;6.614;2024-01-15T00:27:08;4.80;;;1.10;;
52942;SDS011;38809;53.300;6.614;2024-01-15T00:29:34;2.78;;;0.70;;
52942;SDS011;38809;53.300;6.614;2024-01-15T00:32:00;2.10;;;0.77;;
52942;SDS011;38809;53.300;6.614;2024-01-15T00:34:27;3.33;;;0.90;;
52942;SDS011;38809;53.300;6.614;2024-01-15T00:36:53;4.38;;;0.70;;
52942;SDS011;38809;53.300;6.614;2024-01-15T00:41:45;3.55;;;1.20;;
52942;SDS011;38809;53.300;6.614;2024-01-15T00:44:11;5.88;;;1.17;;
52942;SDS011;38809;53.300;6.614;2024-01-15T00:46:42;7.93;;;1.55;;
52942;SDS011;38809;53.300;6.614;2024-01-15T00:49:08;5.60;;;1.15;;
52942;SDS011;38809;53.300;6.614;2024-01-15T00:51:35;5.80;;;1.30;;
52942;SDS011;38809;53.300;6.614;2024-01-15T00:54:01;8.25;;;1.60;;
52942;SDS011;38809;53.300;6.614;2024-01-15T00:56:27;11.55;;;2.65;;
52942;SDS011;38809;53.300;6.614;2024-01-15T00:58:53;8.77;;;1.65;;
52942;SDS011;38809;53.300;6.614;2024-01-15T01:01:19;6.90;;;1.40;;
52942;SDS011;38809;53.300;6.614;2024-01-15T01:03:45;7.75;;;1.63;;
52942;SDS011;38809;53.300;6.614;2024-01-15T01:06:11;7.25;;;1.50;;
52942;SDS011;38809;53.300;6.614;2024-01-15T01:08:38;5.70;;;1.23;;
52942;SDS011;38809;53.300;6.614;2024-01-15T01:13:32;8.60;;;1.40;;
52942;SDS011;38809;53.300;6.614;2024-01-15T01:15:58;5.97;;;1.15;;
52942;SDS011;38809;53.300;6.614;2024-01-15T01:18:24;3.75;;;1.20;;
52942;SDS011;38809;53.300;6.614;2024-01-15T01:20:50;6.05;;;1.13;;
52942;SDS011;38809;53.300;6.614;2024-01-15T01:23:16;4.30;;;1.23;;
52942;SDS011;38809;53.300;6.614;2024-01-15T01:25:42;6.30;;;1.42;;
52942;SDS011;38809;53.300;6.614;2024-01-15T01:28:08;4.55;;;1.08;;
52942;SDS011;38809;53.300;6.614;2024-01-15T01:30:34;5.43;;;1.08;;
52942;SDS011;38809;53.300;6.614;2024-01-15T01:33:01;5.93;;;1.33;;
52942;SDS011;38809;53.300;6.614;2024-01-15T01:35:27;14.02;;;2.30;;
52942;SDS011;38809;53.300;6.614;2024-01-15T01:37:53;7.38;;;1.20;;
52942;SDS011;38809;53.300;6.614;2024-01-15T01:40:19;6.50;;;1.25;;
52942;SDS011;38809;53.300;6.614;2024-01-15T01:42:45;6.50;;;1.40;;
52942;SDS011;38809;53.300;6.614;2024-01-15T01:45:11;5.53;;;1.40;;
52942;SDS011;38809;53.300;6.614;2024-01-15T01:47:37;9.27;;;1.55;;
52942;SDS011;38809;53.300;6.614;2024-01-15T01:50:04;7.28;;;1.52;;
52942;SDS011;38809;53.300;6.614;2024-01-15T01:52:31;8.48;;;2.00;;
52942;SDS011;38809;53.300;6.614;2024-01-15T01:54:57;12.07;;;2.25;;
52942;SDS011;38809;53.300;6.614;2024-01-15T01:57:24;8.20;;;1.95;;
52942;SDS011;38809;53.300;6.614;2024-01-15T01:59:50;7.30;;;1.65;;
52942;SDS011;38809;53.300;6.614;2024-01-15T02:02:16;12.30;;;1.90;;
52942;SDS011;38809;53.300;6.614;2024-01-15T02:04:42;6.13;;;2.10;;
52942;SDS011;38809;53.300;6.614;2024-01-15T02:07:09;6.97;;;1.40;;
52942;SDS011;38809;53.300;6.614;2024-01-15T02:09:35;6.15;;;1.85;;
52942;SDS011;38809;53.300;6.614;2024-01-15T02:12:01;5.85;;;0.95;;
52942;SDS011;38809;53.300;6.614;2024-01-15T02:14:27;6.00;;;1.40;;
52942;SDS011;38809;53.300;6.614;2024-01-15T02:16:54;9.80;;;2.35;;
52942;SDS011;38809;53.300;6.614;2024-01-15T02:19:20;6.40;;;1.35;;
52942;SDS011;38809;53.300;6.614;2024-01-15T02:21:46;7.30;;;1.77;;
52942;SDS011;38809;53.300;6.614;2024-01-15T02:24:12;9.65;;;2.08;;
52942;SDS011;38809;53.300;6.614;2024-01-15T02:26:38;11.55;;;2.10;;
52942;SDS011;38809;53.300;6.614;2024-01-15T02:29:05;7.88;;;2.13;;
52942;SDS011;38809;53.300;6.614;2024-01-15T02:31:36;8.20;;;1.80;;
52942;SDS011;38809;53.300;6.614;2024-01-15T02:34:02;6.22;;;1.33;;
52942;SDS011;38809;53.300;6.614;2024-01-15T02:36:28;3.83;;;0.90;;
52942;SDS011;38809;53.300;6.614;2024-01-15T02:38:54;5.07;;;0.82;;
52942;SDS011;38809;53.300;6.614;2024-01-15T02:41:20;10.48;;;1.30;;
52942;SDS011;38809;53.300;6.614;2024-01-15T02:43:46;4.70;;;0.93;;
52942;SDS011;38809;53.300;6.614;2024-01-15T02:46:12;4.47;;;0.98;;
52942;SDS011;38809;53.300;6.614;2024-01-15T02:48:39;5.53;;;0.90;;
52942;SDS011;38809;53.300;6.614;2024-01-15T02:51:05;4.38;;;1.17;;
52942;SDS011;38809;53.300;6.614;2024-01-15T02:53:31;5.10;;;1.15;;
52942;SDS011;38809;53.300;6.614;2024-01-15T02:55:57;3.40;;;0.75;;
52942;SDS011;38809;53.300;6.614;2024-01-15T02:58:23;2.58;;;0.80;;
52942;SDS011;38809;53.300;6.614;2024-01-15T03:00:49;3.00;;;0.98;;
52942;SDS011;38809;53.300;6.614;2024-01-15T03:03:15;4.32;;;0.68;;
52942;SDS011;38809;53.300;6.614;2024-01-15T03:05:41;5.50;;;1.10;;
52942;SDS011;38809;53.300;6.614;2024-01-15T03:08:07;4.22;;;0.80;;
52942;SDS011;38809;53.300;6.614;2024-01-15T03:10:34;7.72;;;1.90;;
52942;SDS011;38809;53.300;6.614;2024-01-15T03:13:00;5.78;;;1.15;;
52942;SDS011;38809;53.300;6.614;2024-01-15T03:15:26;7.32;;;1.30;;
52942;SDS011;38809;53.300;6.614;2024-01-15T03:17:52;5.70;;;1.27;;
52942;SDS011;38809;53.300;6.614;2024-01-15T03:20:18;6.60;;;1.17;;
52942;SDS011;38809;53.300;6.614;2024-01-15T03:22:44;9.77;;;1.70;;
52942;SDS011;38809;53.300;6.614;2024-01-15T03:25:10;3.35;;;1.23;;
52942;SDS011;38809;53.300;6.614;2024-01-15T03:27:36;8.38;;;2.00;;
52942;SDS011;38809;53.300;6.614;2024-01-15T03:30:02;8.48;;;1.50;;
52942;SDS011;38809;53.300;6.614;2024-01-15T03:32:29;6.78;;;1.73;;
52942;SDS011;38809;53.300;6.614;2024-01-15T03:34:55;7.82;;;1.50;;
52942;SDS011;38809;53.300;6.614;2024-01-15T03:37:21;8.30;;;1.58;;
52942;SDS011;38809;53.300;6.614;2024-01-15T03:39:47;14.55;;;2.22;;
52942;SDS011;38809;53.300;6.614;2024-01-15T03:42:13;14.32;;;2.35;;
52942;SDS011;38809;53.300;6.614;2024-01-15T03:44:39;10.85;;;2.10;;
52942;SDS011;38809;53.300;6.614;2024-01-15T03:47:06;9.02;;;1.85;;
52942;SDS011;38809;53.300;6.614;2024-01-15T03:49:32;6.47;;;1.83;;
52942;SDS011;38809;53.300;6.614;2024-01-15T03:51:58;8.73;;;1.80;;
52942;SDS011;38809;53.300;6.614;2024-01-15T03:54:24;4.43;;;1.55;;
52942;SDS011;38809;53.300;6.614;2024-01-15T03:56:50;9.80;;;1.50;;
52942;SDS011;38809;53.300;6.614;2024-01-15T03:59:16;7.97;;;1.58;;
52942;SDS011;38809;53.300;6.614;2024-01-15T04:01:47;6.28;;;1.42;;
52942;SDS011;38809;53.300;6.614;2024-01-15T04:04:14;4.88;;;0.88;;
52942;SDS011;38809;53.300;6.614;2024-01-15T04:06:40;6.10;;;1.52;;
52942;SDS011;38809;53.300;6.614;2024-01-15T04:09:07;9.48;;;2.38;;
52942;SDS011;38809;53.300;6.614;2024-01-15T04:11:33;6.22;;;1.80;;
52942;SDS011;38809;53.300;6.614;2024-01-15T04:13:59;7.38;;;1.60;;
52942;SDS011;38809;53.300;6.614;2024-01-15T04:16:25;4.45;;;1.88;;
52942;SDS011;38809;53.300;6.614;2024-01-15T04:18:51;6.53;;;1.25;;
52942;SDS011;38809;53.300;6.614;2024-01-15T04:21:17;10.05;;;1.67;;
52942;SDS011;38809;53.300;6.614;2024-01-15T04:23:43;6.32;;;1.60;;
52942;SDS011;38809;53.300;6.614;2024-01-15T04:26:09;6.35;;;1.20;;
52942;SDS011;38809;53.300;6.614;2024-01-15T04:28:36;9.60;;;1.75;;
52942;SDS011;38809;53.300;6.614;2024-01-15T04:31:02;7.65;;;1.77;;
52942;SDS011;38809;53.300;6.614;2024-01-15T04:33:28;13.77;;;2.15;;
52942;SDS011;38809;53.300;6.614;2024-01-15T04:35:54;7.53;;;1.98;;
52942;SDS011;38809;53.300;6.614;2024-01-15T04:38:20;11.43;;;2.40;;
52942;SDS011;38809;53.300;6.614;2024-01-15T04:40:46;8.27;;;1.95;;
52942;SDS011;38809;53.300;6.614;2024-01-15T04:43:12;11.30;;;2.20;;
52942;SDS011;38809;53.300;6.614;2024-01-15T04:45:38;7.95;;;1.52;;
52942;SDS011;38809;53.300;6.614;2024-01-15T04:48:04;6.95;;;1.48;;
52942;SDS011;38809;53.300;6.614;2024-01-15T04:50:31;9.90;;;1.50;;
52942;SDS011;38809;53.300;6.614;2024-01-15T04:52:57;5.60;;;1.33;;
52942;SDS011;38809;53.300;6.614;2024-01-15T04:55:23;8.23;;;1.52;;
52942;SDS011;38809;53.300;6.614;2024-01-15T04:57:49;8.00;;;1.85;;
52942;SDS011;38809;53.300;6.614;2024-01-15T05:00:15;6.93;;;1.25;;
52942;SDS011;38809;53.300;6.614;2024-01-15T05:02:41;8.80;;;1.70;;
52942;SDS011;38809;53.300;6.614;2024-01-15T05:05:07;5.45;;;1.20;;
52942;SDS011;38809;53.300;6.614;2024-01-15T05:07:34;4.63;;;1.42;;
52942;SDS011;38809;53.300;6.614;2024-01-15T05:10:00;7.65;;;1.33;;
52942;SDS011;38809;53.300;6.614;2024-01-15T05:12:26;7.68;;;1.85;;
52942;SDS011;38809;53.300;6.614;2024-01-15T05:14:52;8.75;;;1.92;;
52942;SDS011;38809;53.300;6.614;2024-01-15T05:17:18;8.65;;;1.58;;
52942;SDS011;38809;53.300;6.614;2024-01-15T05:19:44;11.02;;;2.33;;
52942;SDS011;38809;53.300;6.614;2024-01-15T05:22:10;8.52;;;1.70;;
52942;SDS011;38809;53.300;6.614;2024-01-15T05:24:36;7.13;;;1.90;;
52942;SDS011;38809;53.300;6.614;2024-01-15T05:27:02;9.27;;;2.00;;
52942;SDS011;38809;53.300;6.614;2024-01-15T05:29:29;10.10;;;2.60;;
52942;SDS011;38809;53.300;6.614;2024-01-15T05:31:55;20.02;;;2.80;;
52942;SDS011;38809;53.300;6.614;2024-01-15T05:34:21;10.38;;;2.28;;
52942;SDS011;38809;53.300;6.614;2024-01-15T05:36:47;7.45;;;1.65;;
52942;SDS011;38809;53.300;6.614;2024-01-15T05:39:13;6.82;;;1.88;;
52942;SDS011;38809;53.300;6.614;2024-01-15T05:41:39;9.15;;;1.48;;
52942;SDS011;38809;53.300;6.614;2024-01-15T05:44:05;6.80;;;1.70;;
52942;SDS011;38809;53.300;6.614;2024-01-15T05:46:31;7.80;;;1.83;;
52942;SDS011;38809;53.300;6.614;2024-01-15T05:48:58;6.70;;;1.70;;
52942;SDS011;38809;53.300;6.614;2024-01-15T05:51:24;14.68;;;2.67;;
52942;SDS011;38809;53.300;6.614;2024-01-15T05:53:50;8.75;;;1.95;;
52942;SDS011;38809;53.300;6.614;2024-01-15T05:56:16;7.88;;;2.00;;
52942;SDS011;38809;53.300;6.614;2024-01-15T05:58:42;6.95;;;1.80;;
52942;SDS011;38809;53.300;6.614;2024-01-15T06:01:09;8.93;;;1.90;;
52942;SDS011;38809;53.300;6.614;2024-01-15T06:06:01;9.38;;;2.10;;
52942;SDS011;38809;53.300;6.614;2024-01-15T06:08:27;6.10;;;1.33;;
52942;SDS011;38809;53.300;6.614;2024-01-15T06:10:55;9.80;;;2.08;;
52942;SDS011;38809;53.300;6.614;2024-01-15T06:13:21;11.50;;;2.30;;
52942;SDS011;38809;53.300;6.614;2024-01-15T06:15:47;7.60;;;1.90;;
52942;SDS011;38809;53.300;6.614;2024-01-15T06:18:14;7.60;;;1.58;;
52942;SDS011;38809;53.300;6.614;2024-01-15T06:20:40;8.25;;;1.73;;
52942;SDS011;38809;53.300;6.614;2024-01-15T06:23:06;10.10;;;1.85;;
52942;SDS011;38809;53.300;6.614;2024-01-15T06:25:32;8.00;;;1.85;;
52942;SDS011;38809;53.300;6.614;2024-01-15T06:27:58;10.68;;;2.55;;
52942;SDS011;38809;53.300;6.614;2024-01-15T06:30:24;13.32;;;2.10;;
52942;SDS011;38809;53.300;6.614;2024-01-15T06:32:50;8.07;;;1.80;;
52942;SDS011;38809;53.300;6.614;2024-01-15T06:35:16;9.10;;;1.77;;
52942;SDS011;38809;53.300;6.614;2024-01-15T06:37:42;9.65;;;1.90;;
52942;SDS011;38809;53.300;6.614;2024-01-15T06:40:09;7.13;;;2.00;;
52942;SDS011;38809;53.300;6.614;2024-01-15T06:42:35;17.77;;;2.13;;
52942;SDS011;38809;53.300;6.614;2024-01-15T06:45:01;9.32;;;1.95;;
52942;SDS011;38809;53.300;6.614;2024-01-15T06:47:27;8.18;;;1.50;;
52942;SDS011;38809;53.300;6.614;2024-01-15T06:49:53;4.55;;;1.35;;
52942;SDS011;38809;53.300;6.614;2024-01-15T06:52:20;7.15;;;1.50;;
52942;SDS011;38809;53.300;6.614;2024-01-15T06:54:46;6.03;;;1.80;;
52942;SDS011;38809;53.300;6.614;2024-01-15T06:59:38;9.75;;;2.13;;
52942;SDS011;38809;53.300;6.614;2024-01-15T07:02:05;9.18;;;1.80;;
52942;SDS011;38809;53.300;6.614;2024-01-15T07:04:31;7.45;;;1.52;;
52942;SDS011;38809;53.300;6.614;2024-01-15T07:06:57;11.02;;;2.38;;
52942;SDS011;38809;53.300;6.614;2024-01-15T07:09:24;7.93;;;1.67;;
52942;SDS011;38809;53.300;6.614;2024-01-15T07:11:50;6.55;;;1.63;;
52942;SDS011;38809;53.300;6.614;2024-01-15T07:14:16;11.07;;;2.05;;
52942;SDS011;38809;53.300;6.614;2024-01-15T07:16:42;6.45;;;1.63;;
52942;SDS011;38809;53.300;6.614;2024-01-15T07:19:08;5.38;;;1.48;;
52942;SDS011;38809;53.300;6.614;2024-01-15T07:21:34;4.60;;;1.10;;
52942;SDS011;38809;53.300;6.614;2024-01-15T07:24:01;5.00;;;1.52;;
52942;SDS011;38809;53.300;6.614;2024-01-15T07:26:27;3.10;;;1.10;;
52942;SDS011;38809;53.300;6.614;2024-01-15T07:28:53;2.95;;;1.10;;
52942;SDS011;38809;53.300;6.614;2024-01-15T07:31:19;2.45;;;0.95;;
52942;SDS011;38809;53.300;6.614;2024-01-15T07:33:45;4.88;;;0.98;;
52942;SDS011;38809;53.300;6.614;2024-01-15T07:36:11;4.03;;;0.75;;
52942;SDS011;38809;53.300;6.614;2024-01-15T07:38:37;3.13;;;1.00;;
52942;SDS011;38809;53.300;6.614;2024-01-15T07:41:03;3.67;;;0.90;;
52942;SDS011;38809;53.300;6.614;2024-01-15T07:43:30;3.58;;;0.90;;
52942;SDS011;38809;53.300;6.614;2024-01-15T07:45:56;3.58;;;1.00;;
52942;SDS011;38809;53.300;6.614;2024-01-15T07:50:48;5.85;;;0.93;;
52942;SDS011;38809;53.300;6.614;2024-01-15T07:53:14;2.53;;;0.63;;
52942;SDS011;38809;53.300;6.614;2024-01-15T07:55:41;6.20;;;1.20;;
52942;SDS011;38809;53.300;6.614;2024-01-15T07:58:07;3.80;;;1.15;;
52942;SDS011;38809;53.300;6.614;2024-01-15T08:00:33;2.33;;;0.70;;
52942;SDS011;38809;53.300;6.614;2024-01-15T08:02:59;3.70;;;0.77;;
52942;SDS011;38809;53.300;6.614;2024-01-15T08:05:25;5.80;;;1.40;;
52942;SDS011;38809;53.300;6.614;2024-01-15T08:07:51;4.10;;;1.00;;
52942;SDS011;38809;53.300;6.614;2024-01-15T08:10:17;6.03;;;1.48;;
52942;SDS011;38809;53.300;6.614;2024-01-15T08:12:44;4.47;;;1.02;;
52942;SDS011;38809;53.300;6.614;2024-01-15T08:15:10;3.05;;;0.90;;
52942;SDS011;38809;53.300;6.614;2024-01-15T08:17:36;4.55;;;0.98;;
52942;SDS011;38809;53.300;6.614;2024-01-15T08:20:02;4.18;;;1.30;;
52942;SDS011;38809;53.300;6.614;2024-01-15T08:22:30;4.15;;;1.48;;
52942;SDS011;38809;53.300;6.614;2024-01-15T08:24:56;6.35;;;1.30;;
52942;SDS011;38809;53.300;6.614;2024-01-15T08:27:22;4.75;;;1.17;;
52942;SDS011;38809;53.300;6.614;2024-01-15T08:29:48;5.68;;;1.60;;
52942;SDS011;38809;53.300;6.614;2024-01-15T08:32:14;6.10;;;1.73;;
52942;SDS011;38809;53.300;6.614;2024-01-15T08:34:40;6.05;;;1.38;;
52942;SDS011;38809;53.300;6.614;2024-01-15T08:37:07;9.15;;;1.98;;
52942;SDS011;38809;53.300;6.614;2024-01-15T08:39:33;5.88;;;1.45;;
52942;SDS011;38809;53.300;6.614;2024-01-15T08:42:03;6.10;;;1.80;;
52942;SDS011;38809;53.300;6.614;2024-01-15T08:44:29;7.65;;;1.67;;
52942;SDS011;38809;53.300;6.614;2024-01-15T08:46:55;7.10;;;1.67;;
52942;SDS011;38809;53.300;6.614;2024-01-15T08:49:21;4.32;;;1.55;;
52942;SDS011;38809;53.300;6.614;2024-01-15T08:51:48;4.00;;;0.95;;
52942;SDS011;38809;53.300;6.614;2024-01-15T08:54:14;4.40;;;1.10;;
52942;SDS011;38809;53.300;6.614;2024-01-15T08:56:40;7.70;;;1.73;;
52942;SDS011;38809;53.300;6.614;2024-01-15T08:59:06;9.00;;;1.60;;
52942;SDS011;38809;53.300;6.614;2024-01-15T09:01:32;5.20;;;1.08;;
52942;SDS011;38809;53.300;6.614;2024-01-15T09:03:59;6.68;;;1.30;;
52942;SDS011;38809;53.300;6.614;2024-01-15T09:06:25;3.75;;;0.90;;
52942;SDS011;38809;53.300;6.614;2024-01-15T09:08:51;2.45;;;0.70;;
52942;SDS011;38809;53.300;6.614;2024-01-15T09:11:17;4.78;;;0.70;;
52942;SDS011;38809;53.300;6.614;2024-01-15T09:13:43;4.57;;;1.20;;
52942;SDS011;38809;53.300;6.614;2024-01-15T09:16:09;3.78;;;1.00;;
52942;SDS011;38809;53.300;6.614;2024-01-15T09:18:35;5.85;;;1.27;;
52942;SDS011;38809;53.300;6.614;2024-01-15T09:21:03;7.53;;;1.48;;
52942;SDS011;38809;53.300;6.614;2024-01-15T09:23:30;6.43;;;1.52;;
52942;SDS011;38809;53.300;6.614;2024-01-15T09:25:56;7.80;;;1.50;;
52942;SDS011;38809;53.300;6.614;2024-01-15T09:28:22;6.72;;;1.25;;
52942;SDS011;38809;53.300;6.614;2024-01-15T09:30:48;6.10;;;1.50;;
52942;SDS011;38809;53.300;6.614;2024-01-15T09:33:14;8.35;;;1.60;;
52942;SDS011;38809;53.300;6.614;2024-01-15T09:35:40;6.88;;;1.70;;
52942;SDS011;38809;53.300;6.614;2024-01-15T09:38:06;4.72;;;1.48;;
52942;SDS011;38809;53.300;6.614;2024-01-15T09:40:33;6.93;;;1.55;;
52942;SDS011;38809;53.300;6.614;2024-01-15T09:42:59;5.63;;;1.55;;
52942;SDS011;38809;53.300;6.614;2024-01-15T09:45:25;5.82;;;1.50;;
52942;SDS011;38809;53.300;6.614;2024-01-15T09:47:52;10.32;;;1.60;;
52942;SDS011;38809;53.300;6.614;2024-01-15T09:50:18;5.20;;;1.27;;
52942;SDS011;38809;53.300;6.614;2024-01-15T09:52:45;5.13;;;1.13;;
52942;SDS011;38809;53.300;6.614;2024-01-15T09:55:11;4.78;;;1.70;;
52942;SDS011;38809;53.300;6.614;2024-01-15T09:57:37;6.03;;;1.20;;
52942;SDS011;38809;53.300;6.614;2024-01-15T10:00:06;4.13;;;1.30;;
52942;SDS011;38809;53.300;6.614;2024-01-15T10:02:35;5.85;;;1.40;;
52942;SDS011;38809;53.300;6.614;2024-01-15T10:05:02;4.70;;;1.23;;
52942;SDS011;38809;53.300;6.614;2024-01-15T10:07:28;3.83;;;0.98;;
52942;SDS011;38809;53.300;6.614;2024-01-15T10:09:55;5.60;;;1.35;;
52942;SDS011;38809;53.300;6.614;2024-01-15T10:12:24;5.50;;;1.30;;
52942;SDS011;38809;53.300;6.614;2024-01-15T10:14:52;3.33;;;0.93;;
52942;SDS011;38809;53.300;6.614;2024-01-15T10:17:18;3.50;;;1.00;;
52942;SDS011;38809;53.300;6.614;2024-01-15T10:19:45;5.75;;;0.95;;
52942;SDS011;38809;53.300;6.614;2024-01-15T10:22:13;3.78;;;0.63;;
52942;SDS011;38809;53.300;6.614;2024-01-15T10:24:40;4.88;;;0.95;;
52942;SDS011;38809;53.300;6.614;2024-01-15T10:29:32;3.33;;;0.73;;
52942;SDS011;38809;53.300;6.614;2024-01-15T10:31:59;2.90;;;0.82;;
52942;SDS011;38809;53.300;6.614;2024-01-15T10:34:26;3.72;;;0.60;;
52942;SDS011;38809;53.300;6.614;2024-01-15T10:36:52;1.70;;;0.52;;
52942;SDS011;38809;53.300;6.614;2024-01-15T10:39:23;3.67;;;1.00;;
52942;SDS011;38809;53.300;6.614;2024-01-15T10:41:50;2.38;;;1.10;;
52942;SDS011;38809;53.300;6.614;2024-01-15T10:46:43;4.00;;;0.70;;
52942;SDS011;38809;53.300;6.614;2024-01-15T10:49:09;3.35;;;0.60;;
52942;SDS011;38809;53.300;6.614;2024-01-15T10:51:36;5.15;;;0.95;;
52942;SDS011;38809;53.300;6.614;2024-01-15T10:54:03;2.22;;;0.80;;
52942;SDS011;38809;53.300;6.614;2024-01-15T10:56:30;4.15;;;0.90;;
52942;SDS011;38809;53.300;6.614;2024-01-15T10:59:00;4.63;;;1.10;;
52942;SDS011;38809;53.300;6.614;2024-01-15T11:01:26;6.63;;;0.70;;
52942;SDS011;38809;53.300;6.614;2024-01-15T11:03:53;5.07;;;0.75;;
52942;SDS011;38809;53.300;6.614;2024-01-15T11:06:22;3.72;;;1.10;;
52942;SDS011;38809;53.300;6.614;2024-01-15T11:08:50;4.78;;;1.38;;
52942;SDS011;38809;53.300;6.614;2024-01-15T11:11:16;2.47;;;0.80;;
52942;SDS011;38809;53.300;6.614;2024-01-15T11:16:13;4.13;;;1.00;;
52942;SDS011;38809;53.300;6.614;2024-01-15T11:18:40;3.50;;;0.70;;
52942;SDS011;38809;53.300;6.614;2024-01-15T11:23:42;3.83;;;0.68;;
52942;SDS011;38809;53.300;6.614;2024-01-15T11:28:56;1.85;;;0.40;;
52942;SDS011;38809;53.300;6.614;2024-01-15T11:31:27;1.17;;;0.50;;
52942;SDS011;38809;53.300;6.614;2024-01-15T11:33:54;1.45;;;0.40;;
52942;SDS011;38809;53.300;6.614;2024-01-15T11:37:05;1.27;;;0.40;;
52942;SDS011;38809;53.300;6.614;2024-01-15T11:41:51;2.25;;;0.40;;
52942;SDS011;38809;53.300;6.614;2024-01-15T11:44:17;1.35;;;0.40;;
52942;SDS011;38809;53.300;6.614;2024-01-15T11:46:44;2.05;;;0.40;;
52942;SDS011;38809;53.300;6.614;2024-01-15T11:49:17;3.55;;;1.02;;
52942;SDS011;38809;53.300;6.614;2024-01-15T11:51:49;2.35;;;0.60;;
52942;SDS011;38809;53.300;6.614;2024-01-15T11:54:16;2.72;;;0.47;;
52942;SDS011;38809;53.300;6.614;2024-01-15T11:56:42;3.70;;;0.45;;
52942;SDS011;38809;53.300;6.614;2024-01-15T11:59:08;3.40;;;0.47;;
52942;SDS011;38809;53.300;6.614;2024-01-15T12:01:35;1.50;;;0.40;;
52942;SDS011;38809;53.300;6.614;2024-01-15T12:04:01;4.35;;;0.60;;
52942;SDS011;38809;53.300;6.614;2024-01-15T12:09:05;1.92;;;0.52;;
52942;SDS011;38809;53.300;6.614;2024-01-15T12:11:31;4.63;;;0.70;;
52942;SDS011;38809;53.300;6.614;2024-01-15T12:13:59;3.25;;;0.70;;
52942;SDS011;38809;53.300;6.614;2024-01-15T12:16:25;3.90;;;0.68;;
52942;SDS011;38809;53.300;6.614;2024-01-15T12:18:52;2.17;;;0.80;;
52942;SDS011;38809;53.300;6.614;2024-01-15T12:21:18;4.25;;;1.00;;
52942;SDS011;38809;53.300;6.614;2024-01-15T12:26:10;6.43;;;0.80;;
52942;SDS011;38809;53.300;6.614;2024-01-15T12:28:36;4.03;;;0.90;;
52942;SDS011;38809;53.300;6.614;2024-01-15T12:31:05;5.60;;;0.77;;
52942;SDS011;38809;53.300;6.614;2024-01-15T12:35:57;2.63;;;0.65;;
52942;SDS011;38809;53.300;6.614;2024-01-15T12:38:23;4.40;;;0.98;;
52942;SDS011;38809;53.300;6.614;2024-01-15T12:40:49;4.55;;;0.90;;
52942;SDS011;38809;53.300;6.614;2024-01-15T12:43:15;2.72;;;0.90;;
52942;SDS011;38809;53.300;6.614;2024-01-15T12:45:41;4.88;;;0.82;;
52942;SDS011;38809;53.300;6.614;2024-01-15T12:50:34;5.00;;;1.05;;
52942;SDS011;38809;53.300;6.614;2024-01-15T12:53:01;4.10;;;1.02;;
52942;SDS011;38809;53.300;6.614;2024-01-15T12:57:53;5.72;;;1.20;;
52942;SDS011;38809;53.300;6.614;2024-01-15T13:00:20;4.93;;;0.85;;
52942;SDS011;38809;53.300;6.614;2024-01-15T13:02:46;3.95;;;0.95;;
52942;SDS011;38809;53.300;6.614;2024-01-15T13:05:12;6.07;;;1.55;;
52942;SDS011;38809;53.300;6.614;2024-01-15T13:07:38;3.20;;;0.85;;
52942;SDS011;38809;53.300;6.614;2024-01-15T13:12:31;4.50;;;1.10;;
52942;SDS011;38809;53.300;6.614;2024-01-15T13:14:58;10.57;;;1.35;;
52942;SDS011;38809;53.300;6.614;2024-01-15T13:17:24;5.13;;;1.20;;
52942;SDS011;38809;53.300;6.614;2024-01-15T13:19:50;5.18;;;1.58;;
52942;SDS011;38809;53.300;6.614;2024-01-15T13:22:17;4.13;;;0.82;;
52942;SDS011;38809;53.300;6.614;2024-01-15T13:24:43;9.68;;;1.40;;
52942;SDS011;38809;53.300;6.614;2024-01-15T13:27:09;1.80;;;0.60;;
52942;SDS011;38809;53.300;6.614;2024-01-15T13:29:36;3.22;;;0.60;;
52942;SDS011;38809;53.300;6.614;2024-01-15T13:32:03;3.38;;;0.52;;
52942;SDS011;38809;53.300;6.614;2024-01-15T13:34:30;2.58;;;0.80;;
52942;SDS011;38809;53.300;6.614;2024-01-15T13:36:56;3.88;;;1.00;;
52942;SDS011;38809;53.300;6.614;2024-01-15T13:39:22;5.00;;;0.93;;
52942;SDS011;38809;53.300;6.614;2024-01-15T13:41:49;3.95;;;1.25;;
52942;SDS011;38809;53.300;6.614;2024-01-15T13:46:41;4.22;;;0.95;;
52942;SDS011;38809;53.300;6.614;2024-01-15T13:49:07;5.30;;;1.08;;
52942;SDS011;38809;53.300;6.614;2024-01-15T13:51:36;5.07;;;1.30;;
52942;SDS011;38809;53.300;6.614;2024-01-15T13:54:03;3.63;;;0.90;;
52942;SDS011;38809;53.300;6.614;2024-01-15T13:56:32;6.60;;;1.50;;
52942;SDS011;38809;53.300;6.614;2024-01-15T13:59:00;7.47;;;1.48;;
52942;SDS011;38809;53.300;6.614;2024-01-15T14:01:27;7.03;;;1.83;;
52942;SDS011;38809;53.300;6.614;2024-01-15T14:03:53;5.43;;;1.15;;
52942;SDS011;38809;53.300;6.614;2024-01-15T14:06:20;5.90;;;1.40;;
52942;SDS011;38809;53.300;6.614;2024-01-15T14:08:46;4.95;;;1.30;;
52942;SDS011;38809;53.300;6.614;2024-01-15T14:11:12;4.35;;;1.45;;
52942;SDS011;38809;53.300;6.614;2024-01-15T14:13:38;5.18;;;1.58;;
52942;SDS011;38809;53.300;6.614;2024-01-15T14:16:04;4.68;;;1.35;;
52942;SDS011;38809;53.300;6.614;2024-01-15T14:18:30;5.45;;;1.10;;
52942;SDS011;38809;53.300;6.614;2024-01-15T14:20:57;5.05;;;1.10;;
52942;SDS011;38809;53.300;6.614;2024-01-15T14:23:23;3.30;;;0.90;;
52942;SDS011;38809;53.300;6.614;2024-01-15T14:25:49;4.13;;;0.90;;
52942;SDS011;38809;53.300;6.614;2024-01-15T14:28:15;3.60;;;0.85;;
52942;SDS011;38809;53.300;6.614;2024-01-15T14:30:42;4.80;;;0.70;;
52942;SDS011;38809;53.300;6.614;2024-01-15T14:33:08;5.22;;;0.90;;
52942;SDS011;38809;53.300;6.614;2024-01-15T14:35:34;3.65;;;0.80;;
52942;SDS011;38809;53.300;6.614;2024-01-15T14:38:00;6.07;;;1.13;;
52942;SDS011;38809;53.300;6.614;2024-01-15T14:42:53;3.38;;;0.70;;
52942;SDS011;38809;53.300;6.614;2024-01-15T14:47:46;4.47;;;1.23;;
52942;SDS011;38809;53.300;6.614;2024-01-15T14:50:12;4.88;;;1.40;;
52942;SDS011;38809;53.300;6.614;2024-01-15T14:52:38;4.72;;;1.50;;
52942;SDS011;38809;53.300;6.614;2024-01-15T14:55:07;5.30;;;1.25;;
52942;SDS011;38809;53.300;6.614;2024-01-15T14:57:34;5.00;;;1.40;;
52942;SDS011;38809;53.300;6.614;2024-01-15T15:00:00;3.58;;;1.50;;
52942;SDS011;38809;53.300;6.614;2024-01-15T15:02:27;4.55;;;1.30;;
52942;SDS011;38809;53.300;6.614;2024-01-15T15:04:54;4.82;;;1.48;;
52942;SDS011;38809;53.300;6.614;2024-01-15T15:07:23;6.30;;;1.42;;
52942;SDS011;38809;53.300;6.614;2024-01-15T15:09:49;5.15;;;1.42;;
52942;SDS011;38809;53.300;6.614;2024-01-15T15:12:16;6.80;;;1.60;;
52942;SDS011;38809;53.300;6.614;2024-01-15T15:14:42;6.18;;;1.50;;
52942;SDS011;38809;53.300;6.614;2024-01-15T15:17:08;2.90;;;1.23;;
52942;SDS011;38809;53.300;6.614;2024-01-15T15:19:35;3.60;;;1.00;;
52942;SDS011;38809;53.300;6.614;2024-01-15T15:22:01;6.68;;;1.20;;
52942;SDS011;38809;53.300;6.614;2024-01-15T15:26:53;3.00;;;1.00;;
52942;SDS011;38809;53.300;6.614;2024-01-15T15:29:20;3.28;;;0.80;;
52942;SDS011;38809;53.300;6.614;2024-01-15T15:31:47;3.13;;;0.80;;